Time;durP1;ratioP1;P1;durP2;ratioP2;P2;SDS_P1;SDS_P2;PMS_P1;PMS_P2;Temp;Humidity;BMP_temperature;BMP_pressure;BME280_temperature;BME280_humidity;BME280_pressure;Samples;Min_cycle;Max_cycle;Signal;HPM_P1;HPM_P2
2022/04/24 00:00:19;;;;;;;;;;;;;;;13.94;59.95;98873.72;4310459;33;23639;-94
2022/04/24 00:02:45;;;;;;;;;;;;;;;13.94;59.94;98866.72;4310239;33;25091;-94
2022/04/24 00:05:11;;;;;;;;;;;;;;;13.93;59.94;98864.19;4310800;33;19980;-95
2022/04/24 00:07:36;;;;;;;;;;;;;;;13.68;59.94;98868.28;4310848;33;20006;-94
2022/04/24 00:10:01;;;;;;;;;;;;;;;13.82;59.95;98870.09;4310817;33;20002;-94
2022/04/24 00:12:26;;;;;;;;;;;;;;;13.83;59.94;98864.75;4310577;33;20015;-94
2022/04/24 00:14:52;;;;;;;;;;;;;;;13.70;59.93;98868.19;4310215;33;19990;-94
2022/04/24 00:17:20;;;;;;;;;;;;;;;13.79;59.95;98865.87;4310382;33;20628;-94
2022/04/24 00:19:45;;;;;;;;;;;;;;;13.86;59.94;98855.88;4310851;33;20004;-94
2022/04/24 00:22:11;;;;;;;;;;;;;;;13.91;59.95;98858.22;4310414;33;20015;-95
2022/04/24 00:24:36;;;;;;;;;;;;;;;13.73;59.94;98842.72;4310434;33;20010;-94
2022/04/24 00:27:01;;;;;;;;;;;;;;;13.78;59.93;98845.88;4310575;33;20004;-96
2022/04/24 00:29:26;;;;;;;;;;;;;;;13.87;59.94;98833.19;4310966;33;20286;-94
2022/04/24 00:31:52;;;;;;;;;;;;;;;13.78;59.94;98827.56;4310405;33;20015;-94
2022/04/24 00:34:17;;;;;;;;;;;;;;;13.75;59.94;98816.47;4310467;33;20006;-94
2022/04/24 00:36:43;;;;;;;;;;;;;;;13.75;59.94;98825.16;4310337;33;20010;-96
2022/04/24 00:39:09;;;;;;;;;;;;;;;13.66;59.93;98824.84;4310551;33;20003;-94
2022/04/24 00:41:34;;;;;;;;;;;;;;;13.64;59.94;98822.31;4310696;33;19976;-96
2022/04/24 00:43:59;;;;;;;;;;;;;;;13.62;59.93;98832.03;4310322;33;19995;-96
2022/04/24 00:46:34;;;;;;;;;;;;;;;13.59;59.93;98824.38;4309802;33;24022;-94
2022/04/24 00:48:59;;;;;;;;;;;;;;;13.44;59.92;98839.16;4322869;33;20018;-94
2022/04/24 00:51:24;;;;;;;;;;;;;;;13.45;59.93;98827.78;4309975;33;19984;-94
2022/04/24 00:53:49;;;;;;;;;;;;;;;13.50;59.93;98817.06;4309911;33;20008;-94
2022/04/24 00:56:15;;;;;;;;;;;;;;;13.47;59.92;98820.69;4310288;33;20003;-94
2022/04/24 00:58:40;;;;;;;;;;;;;;;13.51;59.93;98829.22;4310485;33;20247;-95
2022/04/24 01:01:05;;;;;;;;;;;;;;;13.47;59.92;98833.75;4310164;33;20002;-95
2022/04/24 01:03:30;;;;;;;;;;;;;;;13.52;59.93;98833.50;4309592;33;20038;-94
2022/04/24 01:05:56;;;;;;;;;;;;;;;13.49;59.93;98828.47;4310056;33;19975;-95
2022/04/24 01:08:21;;;;;;;;;;;;;;;13.49;59.93;98831.91;4310421;33;20039;-93
2022/04/24 01:10:46;;;;;;;;;;;;;;;13.47;59.92;98831.12;4309610;33;27975;-94
2022/04/24 01:13:11;;;;;;;;;;;;;;;13.49;59.93;98836.31;4309680;33;28027;-95
2022/04/24 01:15:36;;;;;;;;;;;;;;;13.39;59.92;98840.38;4310053;33;20332;-95
2022/04/24 01:18:02;;;;;;;;;;;;;;;13.32;59.91;98824.22;4310044;33;19988;-95
2022/04/24 01:20:27;;;;;;;;;;;;;;;13.40;59.92;98823.75;4310010;33;20027;-94
2022/04/24 01:22:52;;;;;;;;;;;;;;;13.26;59.91;98828.97;4309975;33;20076;-94
2022/04/24 01:25:17;;;;;;;;;;;;;;;13.31;59.91;98816.47;4309906;33;20004;-94
2022/04/24 01:27:43;;;;;;;;;;;;;;;13.31;59.92;98822.53;4310272;33;19984;-94
2022/04/24 01:30:08;;;;;;;;;;;;;;;13.37;59.92;98819.56;4309828;33;19999;-95
2022/04/24 01:32:38;;;;;;;;;;;;;;;13.44;59.92;98809.56;4310028;33;19983;-95
2022/04/24 01:35:03;;;;;;;;;;;;;;;13.40;59.91;98811.53;4310803;33;19991;-94
2022/04/24 01:37:29;;;;;;;;;;;;;;;13.36;59.92;98801.34;4310052;33;20047;-93
2022/04/24 01:39:54;;;;;;;;;;;;;;;13.34;59.92;98808.44;4310079;33;20307;-94
2022/04/24 01:42:19;;;;;;;;;;;;;;;13.34;59.92;98788.38;4310108;33;19976;-95
2022/04/24 01:44:44;;;;;;;;;;;;;;;13.28;59.91;98803.56;4309784;33;19987;-95
2022/04/24 01:47:10;;;;;;;;;;;;;;;13.43;59.93;98797.44;4310001;33;20318;-94
2022/04/24 01:49:35;;;;;;;;;;;;;;;13.28;59.92;98808.81;4309977;33;20002;-95
2022/04/24 01:52:00;;;;;;;;;;;;;;;13.13;59.91;98807.88;4310372;33;20028;-96
2022/04/24 01:54:25;;;;;;;;;;;;;;;13.33;59.91;98799.75;4309809;33;20305;-94
2022/04/24 01:56:51;;;;;;;;;;;;;;;13.26;59.91;98805.44;4309928;33;20082;-94
2022/04/24 01:59:16;;;;;;;;;;;;;;;13.20;59.91;98797.00;4310075;33;19971;-95
2022/04/24 02:01:41;;;;;;;;;;;;;;;13.15;59.90;98798.16;4322121;33;20035;-95
2022/04/24 02:04:06;;;;;;;;;;;;;;;13.10;59.90;98800.22;4310136;33;20289;-95
2022/04/24 02:06:32;;;;;;;;;;;;;;;13.28;59.91;98791.34;4309984;33;20030;-95
2022/04/24 02:08:57;;;;;;;;;;;;;;;13.27;59.92;98802.72;4309367;33;20002;-94
2022/04/24 02:11:22;;;;;;;;;;;;;;;13.20;59.91;98799.59;4311646;33;19984;-93
2022/04/24 02:13:47;;;;;;;;;;;;;;;13.05;59.90;98803.09;4313849;33;19992;-94
2022/04/24 02:16:12;;;;;;;;;;;;;;;13.02;59.89;98800.66;4309087;33;20014;-95
2022/04/24 02:18:38;;;;;;;;;;;;;;;13.10;59.90;98808.88;4309402;33;24120;-94
2022/04/24 02:21:03;;;;;;;;;;;;;;;13.11;59.90;98797.50;4309403;33;27361;-95
2022/04/24 02:23:28;;;;;;;;;;;;;;;13.13;59.91;98802.66;4309698;33;20350;-94
2022/04/24 02:25:53;;;;;;;;;;;;;;;13.11;59.90;98802.72;4321754;33;20000;-95
2022/04/24 02:28:19;;;;;;;;;;;;;;;13.16;59.90;98790.25;4309313;33;19984;-94
2022/04/24 02:30:44;;;;;;;;;;;;;;;13.00;59.90;98786.81;4309421;33;20290;-95
2022/04/24 02:33:09;;;;;;;;;;;;;;;13.04;59.90;98780.50;4309205;33;19989;-94
2022/04/24 02:35:34;;;;;;;;;;;;;;;13.10;59.90;98782.75;4321374;33;20157;-93
2022/04/24 02:38:00;;;;;;;;;;;;;;;13.20;59.91;98785.69;4309258;33;20381;-94
2022/04/24 02:40:27;;;;;;;;;;;;;;;13.09;59.90;98783.69;4309484;33;19995;-95
2022/04/24 02:42:52;;;;;;;;;;;;;;;13.03;59.89;98794.50;4321591;33;19976;-94
2022/04/24 02:45:18;;;;;;;;;;;;;;;13.10;59.90;98788.00;4309082;33;20034;-95
2022/04/24 02:47:43;;;;;;;;;;;;;;;13.15;59.90;98785.09;4309241;33;20311;-94
2022/04/24 02:50:08;;;;;;;;;;;;;;;12.92;59.89;98791.63;4309399;33;19987;-95
2022/04/24 02:52:43;;;;;;;;;;;;;;;12.91;59.89;98782.13;4308908;33;20036;-94
2022/04/24 02:55:08;;;;;;;;;;;;;;;12.98;59.90;98786.06;4308816;33;19995;-92
2022/04/24 02:57:34;;;;;;;;;;;;;;;13.14;59.91;98791.25;4309185;33;20027;-94
2022/04/24 02:59:59;;;;;;;;;;;;;;;13.08;59.90;98786.41;4309217;33;19988;-94
2022/04/24 03:02:24;;;;;;;;;;;;;;;13.07;59.90;98779.50;4321151;33;20044;-95
2022/04/24 03:04:50;;;;;;;;;;;;;;;13.00;59.90;98778.97;4308610;33;25085;-95
2022/04/24 03:07:15;;;;;;;;;;;;;;;13.07;59.90;98767.25;4309077;33;19992;-93
2022/04/24 03:09:41;;;;;;;;;;;;;;;12.95;59.89;98770.56;4308943;33;19992;-94
2022/04/24 03:12:06;;;;;;;;;;;;;;;12.99;59.90;98760.78;4309018;33;19992;-95
2022/04/24 03:14:31;;;;;;;;;;;;;;;13.00;59.90;98759.84;4309041;33;20034;-94
2022/04/24 03:16:57;;;;;;;;;;;;;;;13.10;59.90;98751.41;4308581;33;19995;-94
2022/04/24 03:19:22;;;;;;;;;;;;;;;12.93;59.89;98756.75;4308524;33;20023;-95
2022/04/24 03:21:48;;;;;;;;;;;;;;;12.99;59.90;98756.41;4307563;33;20381;-95
2022/04/24 03:24:13;;;;;;;;;;;;;;;12.86;59.89;98758.87;4308333;33;20014;-96
2022/04/24 03:26:38;;;;;;;;;;;;;;;13.09;59.90;98756.72;4308893;33;19996;-95
2022/04/24 03:29:04;;;;;;;;;;;;;;;13.06;59.90;98755.12;4310272;33;20032;-94
2022/04/24 03:31:29;;;;;;;;;;;;;;;12.89;59.89;98748.25;4310540;33;20000;-92
2022/04/24 03:33:54;;;;;;;;;;;;;;;12.92;59.89;98742.00;4310608;33;19996;-94
2022/04/24 03:36:19;;;;;;;;;;;;;;;12.83;59.89;98737.34;4310921;33;20000;-94
2022/04/24 03:38:45;;;;;;;;;;;;;;;12.92;59.89;98739.41;4312095;33;20002;-91
2022/04/24 03:41:10;;;;;;;;;;;;;;;13.05;59.90;98739.56;4314671;33;19987;-94
2022/04/24 03:43:35;;;;;;;;;;;;;;;12.90;59.89;98733.44;4310802;33;20035;-93
2022/04/24 03:46:00;;;;;;;;;;;;;;;12.98;59.90;98731.19;4310654;33;20030;-95
2022/04/24 03:48:26;;;;;;;;;;;;;;;13.03;59.89;98749.25;4310813;33;19994;-95
2022/04/24 03:50:51;;;;;;;;;;;;;;;13.03;59.89;98739.62;4310690;33;19992;-95
2022/04/24 03:53:17;;;;;;;;;;;;;;;13.04;59.90;98736.09;4310669;33;19983;-95
2022/04/24 03:55:42;;;;;;;;;;;;;;;12.95;59.89;98744.44;4310467;33;19998;-95
2022/04/24 03:58:07;;;;;;;;;;;;;;;13.02;59.89;98748.41;4310646;33;20019;-95
2022/04/24 04:00:32;;;;;;;;;;;;;;;12.97;59.90;98728.69;4310726;33;20298;-95
2022/04/24 04:02:57;;;;;;;;;;;;;;;13.11;59.90;98734.81;4310710;33;19995;-95
2022/04/24 04:05:23;;;;;;;;;;;;;;;12.91;59.89;98740.34;4310625;33;19988;-94
2022/04/24 04:07:48;;;;;;;;;;;;;;;12.95;59.89;98738.38;4310534;33;19992;-94
2022/04/24 04:10:13;;;;;;;;;;;;;;;12.99;59.90;98740.72;4310330;33;21691;-95
2022/04/24 04:12:39;;;;;;;;;;;;;;;13.08;59.90;98740.22;4311236;33;20012;-94
2022/04/24 04:15:04;;;;;;;;;;;;;;;13.16;59.90;98747.59;4311046;33;19976;-95
2022/04/24 04:17:29;;;;;;;;;;;;;;;13.12;59.91;98746.09;4311029;33;19994;-95
2022/04/24 04:19:55;;;;;;;;;;;;;;;13.08;59.90;98750.66;4310209;33;20158;-94
2022/04/24 04:22:20;;;;;;;;;;;;;;;13.27;59.92;98754.84;4310491;33;20010;-95
2022/04/24 04:24:45;;;;;;;;;;;;;;;13.26;59.91;98742.72;4310147;33;19999;-95
2022/04/24 04:27:10;;;;;;;;;;;;;;;13.33;59.91;98734.41;4310091;33;21246;-96
2022/04/24 04:29:36;;;;;;;;;;;;;;;13.27;59.92;98733.94;4310360;33;19984;-94
2022/04/24 04:32:02;;;;;;;;;;;;;;;13.29;59.91;98737.31;4310516;33;20381;-95
2022/04/24 04:34:27;;;;;;;;;;;;;;;13.20;59.92;98742.13;4310527;33;19996;-95
2022/04/24 04:36:52;;;;;;;;;;;;;;;13.33;59.91;98746.62;4310468;33;20002;-94
2022/04/24 04:39:18;;;;;;;;;;;;;;;13.20;59.91;98751.72;4309729;33;19987;-95
2022/04/24 04:41:43;;;;;;;;;;;;;;;13.39;59.92;98756.72;4310773;33;20010;-95
2022/04/24 04:44:08;;;;;;;;;;;;;;;13.34;59.92;98746.53;4310486;33;19992;-94
2022/04/24 04:46:33;;;;;;;;;;;;;;;13.47;59.92;98749.25;4310528;33;19998;-95
2022/04/24 04:48:59;;;;;;;;;;;;;;;13.44;59.92;98741.59;4310378;33;20133;-95
2022/04/24 04:51:24;;;;;;;;;;;;;;;13.53;59.92;98741.06;4310638;33;20035;-94
2022/04/24 04:53:51;;;;;;;;;;;;;;;13.62;59.93;98737.06;4310042;33;21786;-95
2022/04/24 04:56:17;;;;;;;;;;;;;;;13.67;59.93;98738.44;4310670;33;19979;-96
2022/04/24 04:58:42;;;;;;;;;;;;;;;13.69;59.93;98736.56;4310388;33;20015;-94
2022/04/24 05:01:07;;;;;;;;;;;;;;;13.70;59.93;98735.63;4322101;33;19992;-95
2022/04/24 05:03:32;;;;;;;;;;;;;;;13.90;59.95;98736.19;4310623;33;20011;-95
2022/04/24 05:05:58;;;;;;;;;;;;;;;13.97;59.96;98733.13;4312866;33;20003;-93
2022/04/24 05:08:23;;;;;;;;;;;;;;;13.96;59.95;98728.84;4313587;33;26423;-95
2022/04/24 05:10:48;;;;;;;;;;;;;;;14.07;59.95;98723.75;4310107;33;20408;-95
2022/04/24 05:13:13;;;;;;;;;;;;;;;13.93;59.94;98720.31;4310206;33;20006;-94
2022/04/24 05:15:39;;;;;;;;;;;;;;;14.00;59.95;98719.03;4310011;33;20110;-94
2022/04/24 05:18:04;;;;;;;;;;;;;;;14.00;59.95;98716.41;4310388;33;19991;-94
2022/04/24 05:20:29;;;;;;;;;;;;;;;14.20;59.96;98716.00;4310229;33;20061;-96
2022/04/24 05:23:02;;;;;;;;;;;;;;;14.14;59.96;98718.97;4310157;33;20034;-94
2022/04/24 05:25:27;;;;;;;;;;;;;;;14.02;59.96;98731.06;4310114;33;19983;-95
2022/04/24 05:27:52;;;;;;;;;;;;;;;14.12;59.96;98720.84;4310190;33;20048;-95
2022/04/24 05:30:17;;;;;;;;;;;;;;;14.14;59.96;98717.19;4310015;33;20006;-94
2022/04/24 05:32:47;;;;;;;;;;;;;;;14.31;59.96;98708.28;4310005;33;20113;-94
2022/04/24 05:35:12;;;;;;;;;;;;;;;14.47;59.98;98699.50;4310380;33;19968;-95
2022/04/24 05:37:37;;;;;;;;;;;;;;;14.67;59.99;98705.13;4309888;33;20000;-95
2022/04/24 05:40:03;;;;;;;;;;;;;;;14.82;60.00;98708.50;4310089;33;20259;-94
2022/04/24 05:42:28;;;;;;;;;;;;;;;14.88;60.00;98715.94;4322318;33;19976;-96
2022/04/24 05:44:53;;;;;;;;;;;;;;;15.10;60.02;98730.25;4309951;33;20279;-94
2022/04/24 05:47:19;;;;;;;;;;;;;;;15.02;60.00;98730.75;4309718;33;20004;-94
2022/04/24 05:49:44;;;;;;;;;;;;;;;15.08;60.01;98716.41;4309950;33;20026;-95
2022/04/24 05:52:09;;;;;;;;;;;;;;;14.95;60.00;98732.97;4309659;33;19980;-94
2022/04/24 05:54:34;;;;;;;;;;;;;;;14.86;59.99;98724.84;4309605;33;20034;-94
2022/04/24 05:57:00;;;;;;;;;;;;;;;14.94;60.01;98715.56;4309948;33;19988;-94
2022/04/24 05:59:25;;;;;;;;;;;;;;;14.95;60.00;98725.09;4310038;33;20255;-95
2022/04/24 06:01:50;;;;;;;;;;;;;;;15.05;60.01;98712.22;4309941;33;19972;-95
2022/04/24 06:04:15;;;;;;;;;;;;;;;15.19;60.01;98722.63;4309713;33;19980;-94
2022/04/24 06:06:41;;;;;;;;;;;;;;;15.26;60.02;98720.44;4310028;33;20023;-94
2022/04/24 06:09:06;;;;;;;;;;;;;;;15.24;60.01;98710.03;4309649;33;20311;-94
2022/04/24 06:11:31;;;;;;;;;;;;;;;15.45;60.03;98718.25;4309333;33;20015;-96
2022/04/24 06:13:57;;;;;;;;;;;;;;;15.64;60.04;98716.06;4309779;33;19987;-96
2022/04/24 06:16:22;;;;;;;;;;;;;;;15.74;60.04;98713.63;4309490;33;20337;-95
2022/04/24 06:18:47;;;;;;;;;;;;;;;15.81;60.05;98711.41;4309509;33;20048;-95
2022/04/24 06:21:12;;;;;;;;;;;;;;;15.94;60.06;98718.34;4309479;33;19975;-95
2022/04/24 06:23:38;;;;;;;;;;;;;;;15.99;60.05;98717.16;4321891;33;19994;-94
2022/04/24 06:26:03;;;;;;;;;;;;;;;16.10;60.06;98704.13;4309234;33;20044;-95
2022/04/24 06:28:28;;;;;;;;;;;;;;;16.07;60.06;98715.66;4309583;33;19991;-95
2022/04/24 06:30:54;;;;;;;;;;;;;;;16.17;60.07;98710.63;4309104;33;22136;-94
2022/04/24 06:33:19;;;;;;;;;;;;;;;16.45;60.08;98709.47;4315608;33;20738;-94
2022/04/24 06:35:47;;;;;;;;;;;;;;;16.44;60.08;98702.53;4309899;33;20019;-94
2022/04/24 06:38:12;;;;;;;;;;;;;;;16.50;60.09;98702.91;4309980;33;19978;-95
2022/04/24 06:40:38;;;;;;;;;;;;;;;16.56;60.09;98707.75;4309300;33;20290;-96
2022/04/24 06:43:07;;;;;;;;;;;;;;;16.78;60.11;98707.00;4309506;33;19987;-95
2022/04/24 06:45:36;;;;;;;;;;;;;;;16.87;60.11;98689.75;4309252;33;20015;-95
2022/04/24 06:48:04;;;;;;;;;;;;;;;16.94;60.11;98684.88;4309595;33;20011;-95
2022/04/24 06:50:29;;;;;;;;;;;;;;;17.02;60.11;98685.13;4309343;33;20054;-95
2022/04/24 06:52:55;;;;;;;;;;;;;;;17.11;60.12;98677.38;4309122;33;20027;-95
2022/04/24 06:55:21;;;;;;;;;;;;;;;17.21;60.12;98680.16;4309061;33;19984;-94
2022/04/24 06:57:46;;;;;;;;;;;;;;;17.28;60.13;98684.00;4321197;33;20006;-96
2022/04/24 07:00:11;;;;;;;;;;;;;;;17.40;60.14;98685.69;4308980;33;20007;-95
2022/04/24 07:02:39;;;;;;;;;;;;;;;17.51;60.14;98679.59;4309970;33;19987;-94
2022/04/24 07:05:04;;;;;;;;;;;;;;;17.82;60.15;98683.34;4311135;33;20007;-95
2022/04/24 07:07:29;;;;;;;;;;;;;;;18.03;60.17;98675.53;4311329;33;20010;-95
2022/04/24 07:09:55;;;;;;;;;;;;;;;18.24;60.18;98679.09;4311257;33;19988;-95
2022/04/24 07:12:20;;;;;;;;;;;;;;;18.42;60.19;98677.59;4311102;33;20038;-95
2022/04/24 07:14:46;;;;;;;;;;;;;;;18.57;60.20;98677.31;4310544;33;27300;-94
2022/04/24 07:17:11;;;;;;;;;;;;;;;18.64;60.21;98673.25;4311095;33;19991;-96
2022/04/24 07:19:36;;;;;;;;;;;;;;;18.67;60.20;98673.81;4310691;33;20002;-95
2022/04/24 07:22:02;;;;;;;;;;;;;;;18.52;60.19;98664.53;4310597;33;20026;-95
2022/04/24 07:24:27;;;;;;;;;;;;;;;18.75;60.20;98660.03;4310910;33;19988;-96
2022/04/24 07:26:52;;;;;;;;;;;;;;;18.70;60.21;98656.94;4310919;33;20031;-95
2022/04/24 07:29:17;;;;;;;;;;;;;;;18.59;60.19;98647.22;4310826;33;19984;-96
2022/04/24 07:31:43;;;;;;;;;;;;;;;18.57;60.20;98648.31;4310963;33;19999;-95
2022/04/24 07:34:08;;;;;;;;;;;;;;;18.74;60.20;98645.16;4310789;33;20258;-95
2022/04/24 07:36:35;;;;;;;;;;;;;;;18.79;60.21;98644.78;4310763;33;20014;-95
2022/04/24 07:39:00;;;;;;;;;;;;;;;19.10;60.22;98646.50;4311154;33;19979;-96
2022/04/24 07:41:25;;;;;;;;;;;;;;;19.16;60.23;98645.97;4310675;33;20007;-94
2022/04/24 07:43:51;;;;;;;;;;;;;;;19.22;60.23;98644.66;4310556;33;20077;-95
2022/04/24 07:46:16;;;;;;;;;;;;;;;19.33;60.24;98652.47;4310700;33;20008;-96
2022/04/24 07:48:41;;;;;;;;;;;;;;;19.72;60.26;98648.25;4310934;33;20025;-95
2022/04/24 07:51:06;;;;;;;;;;;;;;;19.87;60.26;98651.34;4310575;33;20027;-94
2022/04/24 07:53:32;;;;;;;;;;;;;;;20.06;60.27;98646.09;4310183;33;21420;-95
2022/04/24 07:55:57;;;;;;;;;;;;;;;20.10;60.28;98662.53;4310611;33;28653;-96
2022/04/24 07:58:22;;;;;;;;;;;;;;;20.18;60.28;98654.78;4317340;33;20016;-94
2022/04/24 08:00:47;;;;;;;;;;;;;;;19.97;60.27;98659.31;4312098;33;20759;-95
2022/04/24 08:03:13;;;;;;;;;;;;;;;19.96;60.27;98655.00;4310758;33;20044;-93
2022/04/24 08:05:39;;;;;;;;;;;;;;;20.13;60.28;98634.06;4310794;33;20262;-96
2022/04/24 08:08:05;;;;;;;;;;;;;;;20.31;60.28;98623.63;4310765;33;19990;-96
2022/04/24 08:10:31;;;;;;;;;;;;;;;20.45;60.29;98628.53;4310698;33;19988;-96
2022/04/24 08:12:56;;;;;;;;;;;;;;;20.69;60.31;98629.94;4310238;33;20047;-96
2022/04/24 08:15:22;;;;;;;;;;;;;;;20.81;60.32;98631.44;4309923;33;19995;-95
2022/04/24 08:17:47;;;;;;;;;;;;;;;20.90;60.32;98625.31;4310693;33;20338;-96
2022/04/24 08:20:13;;;;;;;;;;;;;;;21.13;60.33;98616.09;4310560;33;19987;-96
2022/04/24 08:22:48;;;;;;;;;;;;;;;21.21;60.33;98615.34;4310381;33;19994;-96
2022/04/24 08:25:14;;;;;;;;;;;;;;;21.39;60.35;98602.22;4310390;33;19972;-95
2022/04/24 08:27:39;;;;;;;;;;;;;;;21.74;60.36;98598.84;4310329;33;19980;-95
2022/04/24 08:30:05;;;;;;;;;;;;;;;21.88;60.37;98600.19;4310005;33;19987;-95
2022/04/24 08:32:31;;;;;;;;;;;;;;;21.99;60.38;98602.62;4310254;33;19984;-96
2022/04/24 08:34:57;;;;;;;;;;;;;;;22.13;60.39;98593.38;4310107;33;20004;-96
2022/04/24 08:37:23;;;;;;;;;;;;;;;22.39;60.39;98594.28;4310155;33;19984;-93
2022/04/24 08:39:49;;;;;;;;;;;;;;;22.61;60.41;98587.66;4322580;33;20030;-96
2022/04/24 08:42:18;;;;;;;;;;;;;;;22.73;60.42;98570.53;4310463;33;20370;-96
2022/04/24 08:44:43;;;;;;;;;;;;;;;22.98;60.43;98584.00;4310859;33;20004;-96
2022/04/24 08:47:09;;;;;;;;;;;;;;;23.28;60.45;98571.06;4309923;33;20003;-92
2022/04/24 08:49:34;;;;;;;;;;;;;;;23.55;60.46;98569.19;4309476;33;19979;-95
2022/04/24 08:51:59;;;;;;;;;;;;;;;23.53;60.46;98579.97;4309716;33;20048;-96
2022/04/24 08:54:27;;;;;;;;;;;;;;;23.47;60.45;98563.88;4307537;33;20310;-92
2022/04/24 08:56:52;;;;;;;;;;;;;;;23.70;60.47;98556.19;4307603;33;19995;-95
2022/04/24 08:59:17;;;;;;;;;;;;;;;23.91;60.47;98553.91;4307745;33;19984;-96
2022/04/24 09:01:43;;;;;;;;;;;;;;;24.15;60.49;98559.28;4307118;33;19991;-94
2022/04/24 09:04:09;;;;;;;;;;;;;;;24.32;60.50;98553.97;4307355;33;20008;-92
2022/04/24 09:06:34;;;;;;;;;;;;;;;24.49;60.50;98545.84;4307166;33;20295;-94
2022/04/24 09:09:05;;;;;;;;;;;;;;;24.38;60.51;98548.84;4306834;33;19992;-94
2022/04/24 09:11:31;;;;;;;;;;;;;;;24.45;60.51;98557.00;4306662;33;20362;-94
2022/04/24 09:16:46;;;;;;;;;;;;;;;24.38;60.50;98545.37;4318928;33;20027;-93
2022/04/24 09:19:24;;;;;;;;;;;;;;;24.26;60.50;98536.84;4319004;33;19980;-93
2022/04/24 09:21:50;;;;;;;;;;;;;;;24.00;60.48;98539.63;4306654;33;20052;-93
2022/04/24 09:24:16;;;;;;;;;;;;;;;23.92;60.48;98552.09;4306385;33;20047;-93
2022/04/24 09:26:51;;;;;;;;;;;;;;;23.97;60.47;98544.44;4318741;33;20025;-95
2022/04/24 09:29:16;;;;;;;;;;;;;;;23.93;60.48;98524.50;4319483;33;20035;-94
2022/04/24 09:31:45;;;;;;;;;;;;;;;23.82;60.48;98545.06;4306504;33;20004;-92
2022/04/24 09:34:11;;;;;;;;;;;;;;;24.02;60.49;98542.12;4306615;33;20366;-94
2022/04/24 09:36:36;;;;;;;;;;;;;;;24.03;60.48;98544.63;4306053;33;31434;-96
2022/04/24 09:39:01;;;;;;;;;;;;;;;24.11;60.49;98541.97;4306559;33;21875;-93
2022/04/24 09:41:26;;;;;;;;;;;;;;;24.21;60.50;98546.31;4306516;33;20037;-93
2022/04/24 09:43:52;;;;;;;;;;;;;;;24.27;60.50;98545.66;4305825;33;26597;-93
2022/04/24 09:46:26;;;;;;;;;;;;;;;24.27;60.50;98548.31;4318488;33;19980;-93
2022/04/24 09:48:52;;;;;;;;;;;;;;;24.27;60.50;98549.12;4318617;33;20032;-94
2022/04/24 09:51:17;;;;;;;;;;;;;;;24.04;60.48;98543.63;4306596;33;19988;-92
2022/04/24 09:53:43;;;;;;;;;;;;;;;23.95;60.49;98541.97;4324942;33;19999;-94
2022/04/24 09:56:08;;;;;;;;;;;;;;;23.74;60.48;98554.84;4308705;33;20023;-93
2022/04/24 09:58:35;;;;;;;;;;;;;;;23.61;60.47;98547.31;4308234;33;25669;-94
2022/04/24 10:01:00;;;;;;;;;;;;;;;23.41;60.45;98557.34;4308912;33;20400;-95
2022/04/24 10:03:25;;;;;;;;;;;;;;;23.44;60.46;98564.19;4308698;33;20010;-94
2022/04/24 10:05:51;;;;;;;;;;;;;;;23.23;60.45;98569.88;4308512;33;19998;-91
2022/04/24 10:08:16;;;;;;;;;;;;;;;;;;4309761;33;19995;-93
2022/04/24 10:10:41;;;;;;;;;;;;;;;23.04;60.44;98580.72;4321498;33;19999;-91
2022/04/24 10:13:07;;;;;;;;;;;;;;;22.98;60.44;98587.50;4334161;33;19987;-92
2022/04/24 10:15:33;;;;;;;;;;;;;;;22.96;60.44;98584.16;4308272;33;19988;-93
2022/04/24 10:18:05;;;;;;;;;;;;;;;22.77;60.42;98587.81;4320806;33;19983;-94
2022/04/24 10:20:49;;;;;;;;;;;;;;;22.78;60.42;98597.44;4321074;33;19996;-92
2022/04/24 10:23:14;;;;;;;;;;;;;;;22.87;60.42;98591.22;4320603;33;20002;-91
2022/04/24 10:25:40;;;;;;;;;;;;;;;22.82;60.43;98595.34;4308782;33;19987;-91
2022/04/24 10:28:09;;;;;;;;;;;;;;;22.56;60.42;98598.75;4308807;33;20259;-93
2022/04/24 10:30:35;;;;;;;;;;;;;;;22.64;60.42;98597.97;4308091;33;19988;-92
2022/04/24 10:33:18;;;;;;;;;;;;;;;22.57;60.42;98596.94;4308244;33;20016;-91
2022/04/24 10:36:06;;;;;;;;;;;;;;;22.14;60.40;98611.75;4308640;33;19988;-92
2022/04/24 10:38:32;;;;;;;;;;;;;;;22.05;60.39;98592.31;4314219;33;20002;-92
2022/04/24 10:40:58;;;;;;;;;;;;;;;21.84;60.38;98604.94;4310225;33;20294;-94
2022/04/24 10:43:25;;;;;;;;;;;;;;;21.65;60.37;98605.87;4310355;33;20060;-92
2022/04/24 10:45:50;;;;;;;;;;;;;;;21.65;60.38;98595.28;4322665;33;20373;-93
2022/04/24 10:48:15;;;;;;;;;;;;;;;21.62;60.38;98594.75;4310207;33;19984;-92
2022/04/24 10:50:59;;;;;;;;;;;;;;;21.48;60.37;98593.41;4310008;33;20010;-91
2022/04/24 10:53:25;;;;;;;;;;;;;;;21.38;60.36;98600.56;4310066;33;20027;-91
2022/04/24 10:55:50;;;;;;;;;;;;;;;21.35;60.36;98595.56;4322112;33;20011;-94
2022/04/24 10:58:24;;;;;;;;;;;;;;;21.33;60.37;98594.88;4309891;33;20014;-92
2022/04/24 11:00:49;;;;;;;;;;;;;;;21.25;60.36;98589.47;4322819;33;20007;-95
2022/04/24 11:03:14;;;;;;;;;;;;;;;21.22;60.35;98598.50;4309580;33;20039;-93
2022/04/24 11:05:43;;;;;;;;;;;;;;;21.30;60.35;98595.19;4322040;33;19987;-94
2022/04/24 11:08:09;;;;;;;;;;;;;;;21.32;60.36;98599.34;4310189;33;19990;-94
2022/04/24 11:10:41;;;;;;;;;;;;;;;21.23;60.36;98610.75;4310685;33;20000;-94
2022/04/24 11:13:10;;;;;;;;;;;;;;;21.21;60.35;98612.72;4310697;33;20006;-94
2022/04/24 11:15:37;;;;;;;;;;;;;;;21.17;60.35;98605.19;4322129;33;19994;-95
2022/04/24 11:18:02;;;;;;;;;;;;;;;21.08;60.34;98598.97;4310670;33;19976;-95
2022/04/24 11:20:31;;;;;;;;;;;;;;;20.95;60.34;98601.06;4310767;33;20007;-95
2022/04/24 11:22:56;;;;;;;;;;;;;;;20.91;60.33;98608.47;4311025;33;19997;-94
2022/04/24 11:25:22;;;;;;;;;;;;;;;20.96;60.33;98614.16;4310416;33;20034;-92
2022/04/24 11:27:57;;;;;;;;;;;;;;;20.79;60.33;98610.41;4309849;33;20338;-94
2022/04/24 11:30:25;;;;;;;;;;;;;;;20.83;60.33;98613.66;4310191;33;20059;-95
2022/04/24 11:32:57;;;;;;;;;;;;;;;20.76;60.32;98616.00;4310998;33;19999;-94
2022/04/24 11:35:22;;;;;;;;;;;;;;;20.72;60.33;98616.41;4322323;33;20266;-92
2022/04/24 11:37:48;;;;;;;;;;;;;;;20.75;60.33;98613.50;4310642;33;19990;-93
2022/04/24 11:40:13;;;;;;;;;;;;;;;20.62;60.33;98608.50;4310915;33;20354;-95
2022/04/24 11:42:39;;;;;;;;;;;;;;;20.57;60.32;98618.66;4309708;33;20000;-93
2022/04/24 11:50:47;;;;;;;;;;;;;;;20.56;60.32;98616.97;4324001;33;20133;-94
2022/04/24 11:53:12;;;;;;;;;;;;;;;20.69;60.32;98606.13;4309741;33;20389;-94
2022/04/24 11:58:22;;;;;;;;;;;;;;;21.03;60.34;98572.09;4323895;33;19994;-95
2022/04/24 12:00:48;;;;;;;;;;;;;;;21.45;60.36;98586.59;4309983;33;20004;-93
2022/04/24 12:03:14;;;;;;;;;;;;;;;21.76;60.37;98581.84;4309403;33;19992;-95
2022/04/24 12:05:39;;;;;;;;;;;;;;;21.94;60.38;98588.97;4309795;33;20043;-93
2022/04/24 12:08:05;;;;;;;;;;;;;;;22.21;60.40;98585.47;4309577;33;20006;-94
2022/04/24 12:10:31;;;;;;;;;;;;;;;22.25;60.41;98576.28;4309649;33;19996;-95
2022/04/24 12:12:56;;;;;;;;;;;;;;;22.43;60.41;98555.03;4309785;33;20332;-92
2022/04/24 12:15:25;;;;;;;;;;;;;;;22.60;60.42;98540.91;4309718;33;19998;-96
2022/04/24 12:17:57;;;;;;;;;;;;;;;22.71;60.42;98543.31;4310318;33;19975;-95
2022/04/24 12:20:38;;;;;;;;;;;;;;;23.15;60.45;98541.47;4310036;33;20014;-92
2022/04/24 12:23:11;;;;;;;;;;;;;;;23.45;60.46;98540.13;4321640;33;20043;-93
2022/04/24 12:25:46;;;;;;;;;;;;;;;23.60;60.47;98544.84;4322209;33;19984;-91
2022/04/24 12:28:12;;;;;;;;;;;;;;;23.75;60.48;98544.06;4321348;33;20321;-92
2022/04/24 12:30:37;;;;;;;;;;;;;;;24.01;60.50;98546.63;4321003;33;29137;-93
2022/04/24 12:33:05;;;;;;;;;;;;;;;24.17;60.50;98538.66;4309046;33;20063;-92
2022/04/24 12:35:33;;;;;;;;;;;;;;;24.10;60.49;98550.09;4321213;33;19980;-92
2022/04/24 12:37:58;;;;;;;;;;;;;;;23.91;60.49;98539.78;4309401;33;19971;-93
2022/04/24 12:40:23;;;;;;;;;;;;;;;23.52;60.47;98542.97;4309428;33;20031;-93
2022/04/24 12:42:52;;;;;;;;;;;;;;;23.36;60.47;98540.22;4309156;33;20262;-93
2022/04/24 12:45:21;;;;;;;;;;;;;;;23.36;60.47;98519.81;4309420;33;19984;-94
2022/04/24 12:47:47;;;;;;;;;;;;;;;23.21;60.45;98514.28;4321713;33;19975;-93
2022/04/24 12:50:13;;;;;;;;;;;;;;;23.28;60.46;98517.97;4321431;33;19999;-96
2022/04/24 12:52:38;;;;;;;;;;;;;;;23.26;60.46;98525.25;4309493;33;19999;-96